Time;durP1;ratioP1;P1;durP2;ratioP2;P2;SDS_P1;SDS_P2;PMS_P1;PMS_P2;Temp;Humidity;BMP_temperature;BMP_pressure;BME280_temperature;BME280_humidity;BME280_pressure;Samples;Min_cycle;Max_cycle;Signal;HPM_P1;HPM_P2
2022/03/17 00:01:08;;;;;;;;;;;11.00;1.00;;;;;;5073480;28;20369;-80
2022/03/17 00:03:33;;;;;;;;;;;11.00;1.00;;;;;;5076579;28;19920;-80
2022/03/17 00:05:59;;;;;;;;;;;11.00;1.00;;;;;;5077476;28;19966;-80
2022/03/17 00:08:24;;;;;;;;;;;11.00;1.00;;;;;;5073364;28;19919;-80
2022/03/17 00:10:50;;;;;;;;;;;11.00;1.00;;;;;;5079660;28;20010;-80
2022/03/17 00:13:15;;;;;;;;;;;11.10;1.00;;;;;;5075410;28;19916;-80
2022/03/17 00:15:41;;;;;;;;;;;11.00;1.00;;;;;;5082395;28;19912;-80
2022/03/17 00:18:07;;;;;;;;;;;10.90;1.00;;;;;;5074670;28;19967;-80
2022/03/17 00:20:32;;;;;;;;;;;10.90;1.00;;;;;;5084279;28;20377;-81
2022/03/17 00:22:58;;;;;;;;;;;10.90;1.00;;;;;;5075845;28;19917;-80
2022/03/17 00:25:25;;;;;;;;;;;10.90;1.00;;;;;;5080148;28;19912;-80
2022/03/17 00:27:51;;;;;;;;;;;10.90;1.00;;;;;;5098575;28;19913;-80
2022/03/17 00:30:16;;;;;;;;;;;10.90;1.00;;;;;;5077507;28;19977;-80
2022/03/17 00:32:42;;;;;;;;;;;10.90;1.00;;;;;;5078730;28;19924;-80
2022/03/17 00:37:52;;;;;;;;;;;10.90;1.00;;;;;;5077661;28;19919;-80
2022/03/17 00:40:18;;;;;;;;;;;10.90;1.00;;;;;;5082089;28;20114;-80
2022/03/17 00:42:44;;;;;;;;;;;10.90;1.00;;;;;;5078664;28;20448;-80
2022/03/17 00:45:10;;;;;;;;;;;10.90;1.00;;;;;;5078942;28;19923;-80
2022/03/17 00:47:36;;;;;;;;;;;10.90;1.00;;;;;;5078020;28;19920;-80
2022/03/17 00:50:01;;;;;;;;;;;10.90;1.00;;;;;;5076440;28;19912;-81
2022/03/17 00:52:26;;;;;;;;;;;10.90;1.00;;;;;;5071743;28;19921;-80
2022/03/17 00:54:52;;;;;;;;;;;10.90;1.00;;;;;;5076389;28;19916;-80
2022/03/17 00:57:17;;;;;;;;;;;10.90;1.00;;;;;;5078407;28;20358;-80
2022/03/17 00:59:43;;;;;;;;;;;10.90;1.00;;;;;;5067750;28;20051;-80
2022/03/17 01:02:09;;;;;;;;;;;11.00;1.00;;;;;;5074563;28;19912;-80
2022/03/17 01:04:35;;;;;;;;;;;11.00;1.00;;;;;;5074177;28;19912;-80
2022/03/17 01:07:01;;;;;;;;;;;11.00;1.00;;;;;;5077684;28;20004;-80
2022/03/17 01:09:28;;;;;;;;;;;11.00;1.00;;;;;;5083898;28;19919;-80
2022/03/17 01:11:54;;;;;;;;;;;10.90;1.00;;;;;;5068506;28;20440;-80
2022/03/17 01:14:20;;;;;;;;;;;11.00;1.00;;;;;;5080382;28;19909;-81
2022/03/17 01:16:46;;;;;;;;;;;11.00;1.00;;;;;;5082749;28;19943;-80
2022/03/17 01:19:11;;;;;;;;;;;11.00;1.00;;;;;;5076349;28;19924;-80
2022/03/17 01:21:37;;;;;;;;;;;11.00;1.00;;;;;;5080789;28;19921;-80
2022/03/17 01:24:03;;;;;;;;;;;11.00;1.00;;;;;;5081837;28;19936;-80
2022/03/17 01:26:28;;;;;;;;;;;11.00;1.00;;;;;;5080156;28;19934;-80
2022/03/17 01:28:53;;;;;;;;;;;11.10;1.00;;;;;;5081578;28;19912;-80
2022/03/17 01:31:23;;;;;;;;;;;11.10;1.00;;;;;;5079078;28;19912;-80
2022/03/17 01:33:48;;;;;;;;;;;11.10;1.00;;;;;;5079289;28;19923;-80
2022/03/17 01:36:13;;;;;;;;;;;11.00;1.00;;;;;;5077678;28;20380;-80
2022/03/17 01:38:39;;;;;;;;;;;11.10;1.00;;;;;;5076486;28;19919;-80
2022/03/17 01:41:04;;;;;;;;;;;11.00;1.00;;;;;;5076143;28;19916;-81
2022/03/17 01:43:30;;;;;;;;;;;11.00;1.00;;;;;;5085967;28;19913;-80
2022/03/17 01:45:55;;;;;;;;;;;11.00;1.00;;;;;;5071916;28;19913;-80
2022/03/17 01:48:21;;;;;;;;;;;11.00;1.00;;;;;;5086255;28;19912;-80
2022/03/17 01:50:50;;;;;;;;;;;11.00;1.00;;;;;;5076530;28;20496;-80
2022/03/17 01:53:16;;;;;;;;;;;11.00;1.00;;;;;;5075975;28;19923;-80
2022/03/17 01:55:41;;;;;;;;;;;11.00;1.00;;;;;;5075868;28;19936;-80
2022/03/17 01:58:07;;;;;;;;;;;11.00;1.00;;;;;;5068927;28;19920;-80
2022/03/17 02:00:33;;;;;;;;;;;11.10;1.00;;;;;;5082016;28;19934;-79
2022/03/17 02:02:59;;;;;;;;;;;11.00;1.00;;;;;;5078706;28;19921;-80
2022/03/17 02:05:24;;;;;;;;;;;11.00;1.00;;;;;;5082725;28;19912;-80
2022/03/17 02:07:51;;;;;;;;;;;11.00;1.00;;;;;;5078881;28;19959;-80
2022/03/17 02:10:17;;;;;;;;;;;11.00;1.00;;;;;;5075265;28;19919;-80
2022/03/17 02:15:27;;;;;;;;;;;11.10;1.00;;;;;;5075869;28;19923;-80
2022/03/17 02:17:53;;;;;;;;;;;11.10;1.00;;;;;;5078721;28;20003;-80
2022/03/17 02:20:20;;;;;;;;;;;11.10;1.00;;;;;;5082109;28;19912;-81
2022/03/17 02:22:50;;;;;;;;;;;11.10;1.00;;;;;;5081512;28;19999;-80
2022/03/17 02:25:34;;;;;;;;;;;11.10;1.00;;;;;;5075761;28;19920;-81
2022/03/17 02:28:01;;;;;;;;;;;11.10;1.00;;;;;;5080749;28;20357;-80
2022/03/17 02:30:27;;;;;;;;;;;11.10;1.00;;;;;;5073506;28;19916;-81
2022/03/17 02:33:03;;;;;;;;;;;11.10;1.00;;;;;;5077198;28;19969;-81
2022/03/17 02:35:29;;;;;;;;;;;11.10;1.00;;;;;;5077258;28;19920;-80
2022/03/17 02:37:55;;;;;;;;;;;11.00;1.00;;;;;;5079102;28;19913;-80
2022/03/17 02:40:20;;;;;;;;;;;11.00;1.00;;;;;;5068094;28;19912;-80
2022/03/17 02:42:46;;;;;;;;;;;11.00;1.00;;;;;;5079561;28;19917;-80
2022/03/17 02:45:11;;;;;;;;;;;10.90;1.00;;;;;;5077126;28;19913;-80
2022/03/17 02:47:37;;;;;;;;;;;10.90;1.00;;;;;;5071015;28;19912;-80
2022/03/17 02:50:04;;;;;;;;;;;10.90;1.00;;;;;;5075996;28;19991;-80
2022/03/17 02:52:29;;;;;;;;;;;10.90;1.00;;;;;;5074254;28;20388;-80
2022/03/17 02:54:55;;;;;;;;;;;10.90;1.00;;;;;;5076016;28;19957;-80
2022/03/17 02:57:20;;;;;;;;;;;10.90;1.00;;;;;;5079432;28;19920;-80
2022/03/17 02:59:48;;;;;;;;;;;11.00;1.00;;;;;;5076606;28;19913;-80
2022/03/17 03:02:14;;;;;;;;;;;11.00;1.00;;;;;;5072653;28;20288;-80
2022/03/17 03:04:40;;;;;;;;;;;11.00;1.00;;;;;;5072780;28;19913;-80
2022/03/17 03:07:06;;;;;;;;;;;11.10;1.00;;;;;;5079773;28;19983;-80
2022/03/17 03:09:32;;;;;;;;;;;11.10;1.00;;;;;;5071662;28;19913;-80
2022/03/17 03:11:57;;;;;;;;;;;11.10;1.00;;;;;;5076889;28;19937;-80
2022/03/17 03:14:23;;;;;;;;;;;11.20;1.00;;;;;;5077815;28;19912;-80
2022/03/17 03:16:49;;;;;;;;;;;11.20;1.00;;;;;;5072714;28;19924;-80
2022/03/17 03:19:14;;;;;;;;;;;11.20;1.00;;;;;;5074891;28;19913;-80
2022/03/17 03:21:40;;;;;;;;;;;11.20;1.00;;;;;;5080289;28;19984;-81
2022/03/17 03:24:05;;;;;;;;;;;11.20;1.00;;;;;;5071647;28;20074;-80
2022/03/17 03:26:31;;;;;;;;;;;11.30;1.00;;;;;;5080702;28;19912;-80
2022/03/17 03:28:56;;;;;;;;;;;11.20;1.00;;;;;;5074186;28;19984;-80
2022/03/17 03:31:22;;;;;;;;;;;11.20;1.00;;;;;;5082708;28;19976;-80
2022/03/17 03:33:48;;;;;;;;;;;11.20;1.00;;;;;;5077078;28;19917;-80
2022/03/17 03:38:57;;;;;;;;;;;11.40;1.00;;;;;;5081272;28;19923;-81
2022/03/17 03:41:23;;;;;;;;;;;11.30;1.00;;;;;;5084981;28;19917;-81
2022/03/17 03:43:48;;;;;;;;;;;11.20;9.80;;;;;;5086054;28;19982;-81
2022/03/17 03:46:14;;;;;;;;;;;11.30;1.00;;;;;;5077451;28;19913;-81
2022/03/17 03:48:40;;;;;;;;;;;11.30;1.00;;;;;;5087373;28;19914;-81
2022/03/17 03:51:06;;;;;;;;;;;11.30;1.00;;;;;;5087396;28;21414;-81
2022/03/17 03:54:13;;;;;;;;;;;11.30;99.90;;;;;;5086678;28;19916;-81
2022/03/17 03:56:17;;;;;;;;;;;11.20;99.90;;;;;;5083156;28;19913;-81
2022/03/17 03:58:42;;;;;;;;;;;11.20;1.00;;;;;;5088674;28;20006;-81
2022/03/17 04:01:08;;;;;;;;;;;11.20;1.00;;;;;;5083824;28;19913;-81
2022/03/17 04:03:33;;;;;;;;;;;11.10;1.00;;;;;;5085100;28;19912;-82
2022/03/17 04:05:59;;;;;;;;;;;11.10;94.10;;;;;;5087960;28;19938;-81
2022/03/17 04:08:25;;;;;;;;;;;11.10;99.90;;;;;;5086971;28;19912;-81
2022/03/17 04:10:50;;;;;;;;;;;11.10;99.90;;;;;;5086502;28;20003;-81
2022/03/17 04:13:16;;;;;;;;;;;11.20;99.90;;;;;;5089827;28;19919;-82
2022/03/17 04:15:41;;;;;;;;;;;11.20;99.90;;;;;;5089674;28;19915;-81
2022/03/17 04:18:07;;;;;;;;;;;11.10;99.90;;;;;;5090775;28;19913;-82
2022/03/17 04:20:33;;;;;;;;;;;11.10;99.90;;;;;;5089977;28;19960;-81
2022/03/17 04:22:58;;;;;;;;;;;11.20;99.90;;;;;;5089355;28;19912;-81
2022/03/17 04:25:24;;;;;;;;;;;11.20;99.90;;;;;;5084567;28;19920;-82
2022/03/17 04:27:50;;;;;;;;;;;11.30;1.00;;;;;;5094813;28;19939;-82
2022/03/17 04:30:15;;;;;;;;;;;11.20;1.00;;;;;;5101067;28;19909;-82
2022/03/17 04:32:41;;;;;;;;;;;11.20;1.00;;;;;;5088766;28;19916;-81
2022/03/17 04:35:07;;;;;;;;;;;11.20;1.00;;;;;;5089812;28;19955;-81
2022/03/17 04:37:32;;;;;;;;;;;11.20;1.00;;;;;;5090440;28;19916;-82
2022/03/17 04:39:58;;;;;;;;;;;11.30;1.00;;;;;;5083040;28;19908;-82
2022/03/17 04:42:23;;;;;;;;;;;11.30;1.00;;;;;;5088400;28;19916;-82
2022/03/17 04:44:49;;;;;;;;;;;11.30;1.00;;;;;;5088972;28;19912;-81
2022/03/17 04:47:15;;;;;;;;;;;11.20;1.00;;;;;;5088778;28;19908;-82
2022/03/17 04:49:41;;;;;;;;;;;11.30;1.00;;;;;;5090011;28;19951;-83
2022/03/17 04:53:26;;;;;;;;;;;11.30;1.00;;;;;;5089909;28;19937;-82
2022/03/17 04:54:52;;;;;;;;;;;11.30;1.00;;;;;;5091965;28;19923;-81
2022/03/17 04:57:18;;;;;;;;;;;11.30;1.00;;;;;;5091473;28;19909;-82
2022/03/17 04:59:43;;;;;;;;;;;11.30;1.00;;;;;;5092722;28;19919;-81
2022/03/17 05:02:10;;;;;;;;;;;11.10;1.00;;;;;;5089463;28;19970;-81
2022/03/17 05:04:36;;;;;;;;;;;11.00;1.00;;;;;;5085593;28;19919;-82
2022/03/17 05:07:01;;;;;;;;;;;10.90;1.00;;;;;;5085626;28;20361;-81
2022/03/17 05:09:27;;;;;;;;;;;10.70;1.00;;;;;;5086481;28;19912;-81
2022/03/17 05:11:53;;;;;;;;;;;10.60;1.00;;;;;;5082599;28;19944;-81
2022/03/17 05:14:19;;;;;;;;;;;10.50;1.00;;;;;;5066833;28;20416;-81
2022/03/17 05:16:44;;;;;;;;;;;10.50;1.00;;;;;;5085604;28;19916;-81
2022/03/17 05:19:10;;;;;;;;;;;10.40;1.00;;;;;;5085621;28;19915;-81
2022/03/17 05:21:38;;;;;;;;;;;10.30;1.00;;;;;;5074972;28;19935;-82
2022/03/17 05:24:04;;;;;;;;;;;10.30;1.00;;;;;;5076387;28;19920;-83
2022/03/17 05:26:30;;;;;;;;;;;10.30;1.00;;;;;;5085717;28;19913;-81
2022/03/17 05:28:55;;;;;;;;;;;10.20;1.00;;;;;;5087086;28;19916;-81
2022/03/17 05:31:21;;;;;;;;;;;10.30;1.00;;;;;;5068920;28;19919;-81
2022/03/17 05:33:46;;;;;;;;;;;10.20;1.00;;;;;;5069875;28;19952;-81
2022/03/17 05:36:11;;;;;;;;;;;10.10;1.00;;;;;;5083957;28;19990;-82
2022/03/17 05:38:37;;;;;;;;;;;10.30;1.00;;;;;;5082420;28;19955;-81
2022/03/17 05:41:03;;;;;;;;;;;10.20;1.00;;;;;;5079853;28;19912;-81
2022/03/17 05:43:28;;;;;;;;;;;10.10;1.00;;;;;;5070729;28;20462;-81
2022/03/17 05:45:54;;;;;;;;;;;10.10;1.00;;;;;;5080870;28;19916;-81
2022/03/17 05:48:19;;;;;;;;;;;10.00;1.00;;;;;;5078424;28;20390;-81
2022/03/17 05:50:45;;;;;;;;;;;10.00;1.00;;;;;;5079058;28;19909;-81
2022/03/17 05:53:10;;;;;;;;;;;10.00;1.00;;;;;;5080953;28;19916;-81
2022/03/17 05:55:36;;;;;;;;;;;9.90;1.00;;;;;;5081140;28;19918;-80
2022/03/17 06:00:35;;;;;;;;;;;9.90;1.00;;;;;;5076261;23;19947;-83
2022/03/17 06:03:01;;;;;;;;;;;9.80;1.00;;;;;;5034674;28;19947;-84
2022/03/17 06:05:27;;;;;;;;;;;9.80;1.00;;;;;;5055381;28;20385;-83
2022/03/17 06:07:53;;;;;;;;;;;9.80;1.00;;;;;;5054677;28;19971;-84
2022/03/17 06:10:23;;;;;;;;;;;9.70;1.00;;;;;;5054644;28;20015;-83
2022/03/17 06:12:51;;;;;;;;;;;9.70;1.00;;;;;;5053769;28;19925;-86
2022/03/17 06:15:17;;;;;;;;;;;9.70;1.00;;;;;;5054713;28;19913;-83
2022/03/17 06:17:49;;;;;;;;;;;9.60;1.00;;;;;;5036962;28;19996;-83
2022/03/17 06:20:16;;;;;;;;;;;9.60;1.00;;;;;;5054307;28;19920;-83
2022/03/17 06:22:43;;;;;;;;;;;9.60;1.00;;;;;;5036437;28;19912;-83
2022/03/17 06:25:10;;;;;;;;;;;9.50;1.00;;;;;;5053449;28;20499;-82
2022/03/17 06:27:35;;;;;;;;;;;9.50;1.00;;;;;;5053480;28;19948;-82
2022/03/17 06:30:04;;;;;;;;;;;9.50;1.00;;;;;;5052499;28;19966;-83
2022/03/17 06:32:30;;;;;;;;;;;9.50;1.00;;;;;;5034579;28;19920;-82
2022/03/17 06:34:55;;;;;;;;;;;9.50;1.00;;;;;;5053279;28;19939;-83
2022/03/17 06:37:21;;;;;;;;;;;9.50;1.00;;;;;;5054379;28;19974;-81
2022/03/17 06:39:47;;;;;;;;;;;9.50;99.90;;;;;;5054926;28;19917;-81
2022/03/17 06:42:12;;;;;;;;;;;9.60;99.90;;;;;;5051215;28;19921;-81
2022/03/17 06:44:37;;;;;;;;;;;9.60;99.90;;;;;;5035629;28;19920;-81
2022/03/17 06:47:03;;;;;;;;;;;9.60;99.90;;;;;;5053788;28;20054;-82
2022/03/17 06:49:28;;;;;;;;;;;9.60;99.90;;;;;;5047629;28;19913;-82
2022/03/17 06:51:54;;;;;;;;;;;9.60;99.90;;;;;;5054699;28;19913;-82
2022/03/17 06:54:19;;;;;;;;;;;9.50;99.90;;;;;;5036741;28;20015;-82
2022/03/17 06:56:45;;;;;;;;;;;9.50;1.00;;;;;;5056801;28;19913;-82
2022/03/17 06:59:10;;;;;;;;;;;9.40;1.00;;;;;;5055096;28;19982;-81
2022/03/17 07:01:36;;;;;;;;;;;9.40;1.00;;;;;;5055897;28;19913;-81
2022/03/17 07:04:01;;;;;;;;;;;9.40;1.00;;;;;;5050793;28;20008;-81
2022/03/17 07:06:27;;;;;;;;;;;9.40;99.90;;;;;;5053614;28;19916;-81
2022/03/17 07:08:52;;;;;;;;;;;9.50;1.00;;;;;;5047868;28;19971;-82
2022/03/17 07:11:20;;;;;;;;;;;9.50;1.00;;;;;;5052461;28;19924;-81
2022/03/17 07:13:46;;;;;;;;;;;9.40;98.90;;;;;;5036886;28;19912;-80
2022/03/17 07:16:12;;;;;;;;;;;9.40;1.00;;;;;;5057440;28;19913;-81
2022/03/17 07:18:37;;;;;;;;;;;9.50;1.00;;;;;;5058141;28;20376;-81
2022/03/17 07:21:03;;;;;;;;;;;9.50;99.90;;;;;;5058258;28;19919;-82
2022/03/17 07:23:28;;;;;;;;;;;9.40;99.90;;;;;;5058274;28;20335;-81
2022/03/17 07:25:54;;;;;;;;;;;9.50;99.90;;;;;;5051736;28;19952;-81
2022/03/17 07:28:21;;;;;;;;;;;9.50;1.00;;;;;;5056439;28;19925;-81
2022/03/17 07:30:47;;;;;;;;;;;9.40;1.00;;;;;;5060455;28;19909;-81
2022/03/17 07:33:12;;;;;;;;;;;9.40;1.00;;;;;;5055887;28;20012;-80
2022/03/17 07:35:38;;;;;;;;;;;9.40;99.90;;;;;;5050743;28;19955;-81
2022/03/17 07:38:04;;;;;;;;;;;9.40;99.90;;;;;;5048084;28;19920;-81
2022/03/17 07:40:29;;;;;;;;;;;9.50;1.00;;;;;;5053439;28;19913;-81
2022/03/17 07:42:55;;;;;;;;;;;9.50;1.00;;;;;;5056752;28;19924;-81
2022/03/17 07:45:20;;;;;;;;;;;9.50;1.00;;;;;;5054648;28;19920;-81
2022/03/17 07:47:47;;;;;;;;;;;9.50;1.00;;;;;;5035148;28;19959;-80
2022/03/17 07:50:13;;;;;;;;;;;9.50;1.00;;;;;;5053226;28;19927;-81
2022/03/17 07:52:38;;;;;;;;;;;9.50;1.00;;;;;;5051346;28;19913;-81
2022/03/17 07:55:04;;;;;;;;;;;9.50;1.00;;;;;;5057329;28;19913;-81
2022/03/17 07:57:30;;;;;;;;;;;9.50;1.00;;;;;;5055175;28;20415;-80
2022/03/17 07:59:56;;;;;;;;;;;9.40;1.00;;;;;;5054832;28;19917;-81
2022/03/17 08:02:21;;;;;;;;;;;9.50;1.00;;;;;;5047641;28;19913;-81
2022/03/17 08:05:23;;;;;;;;;;;9.40;1.00;;;;;;5114037;27;19953;-81
2022/03/17 08:07:48;;;;;;;;;;;9.40;91.40;;;;;;5107543;28;20858;-81
2022/03/17 08:10:15;;;;;;;;;;;9.50;99.90;;;;;;5094334;28;19966;-81
2022/03/17 08:12:41;;;;;;;;;;;9.50;1.00;;;;;;5107585;27;19912;-81
2022/03/17 08:15:07;;;;;;;;;;;9.50;9.50;;;;;;5098110;28;19913;-81
2022/03/17 08:17:32;;;;;;;;;;;9.50;1.00;;;;;;5106495;28;20399;-81
2022/03/17 08:19:58;;;;;;;;;;;9.60;99.90;;;;;;5103289;28;19912;-81
2022/03/17 08:22:24;;;;;;;;;;;9.60;1.00;;;;;;5106442;28;19919;-81
2022/03/17 08:24:50;;;;;;;;;;;9.60;1.00;;;;;;5098726;28;19916;-81
2022/03/17 08:27:15;;;;;;;;;;;9.60;1.00;;;;;;5095049;28;20061;-81
2022/03/17 08:29:42;;;;;;;;;;;9.70;99.90;;;;;;5107491;28;19912;-82
2022/03/17 08:32:08;;;;;;;;;;;9.80;99.90;;;;;;5097306;28;19960;-81
2022/03/17 08:34:34;;;;;;;;;;;9.80;1.00;;;;;;5102919;28;19919;-82
2022/03/17 08:37:00;;;;;;;;;;;10.00;1.00;;;;;;5101206;28;19931;-81
2022/03/17 08:39:25;;;;;;;;;;;10.10;99.90;;;;;;5103033;28;19920;-82
2022/03/17 08:41:52;;;;;;;;;;;10.20;99.90;;;;;;5086902;28;19980;-81
2022/03/17 08:44:18;;;;;;;;;;;10.20;1.00;;;;;;5084718;28;19966;-82
2022/03/17 08:49:27;;;;;;;;;;;10.30;99.90;;;;;;5114602;28;19915;-81
2022/03/17 08:51:54;;;;;;;;;;;10.30;99.90;;;;;;5097007;28;19958;-81
2022/03/17 08:54:22;;;;;;;;;;;10.40;99.90;;;;;;5093184;28;19954;-81
2022/03/17 08:56:48;;;;;;;;;;;10.40;99.90;;;;;;5092682;28;19908;-82
2022/03/17 08:59:13;;;;;;;;;;;10.40;99.90;;;;;;5095149;28;20391;-81
2022/03/17 09:01:39;;;;;;;;;;;10.40;1.00;;;;;;5084003;28;20002;-82
2022/03/17 09:04:04;;;;;;;;;;;10.30;1.00;;;;;;5090680;28;19970;-81
2022/03/17 09:06:30;;;;;;;;;;;10.20;1.00;;;;;;5099378;28;19927;-80
2022/03/17 09:08:55;;;;;;;;;;;10.10;1.00;;;;;;5100057;28;19946;-80
2022/03/17 09:11:21;;;;;;;;;;;10.10;1.00;;;;;;5100205;28;19920;-81
2022/03/17 09:13:49;;;;;;;;;;;10.10;1.00;;;;;;5097746;28;20284;-81
2022/03/17 09:16:18;;;;;;;;;;;10.20;99.90;;;;;;5090913;28;20474;-81
2022/03/17 09:18:44;;;;;;;;;;;10.20;1.00;;;;;;5075776;28;19912;-81
2022/03/17 09:21:09;;;;;;;;;;;10.40;99.90;;;;;;5082132;28;19937;-81
2022/03/17 09:23:35;;;;;;;;;;;10.60;1.00;;;;;;5085143;28;19916;-81
2022/03/17 09:26:01;;;;;;;;;;;10.70;99.90;;;;;;5068652;28;20012;-80
2022/03/17 09:28:27;;;;;;;;;;;10.90;99.90;;;;;;5092145;28;20002;-82
2022/03/17 09:30:56;;;;;;;;;;;11.00;36.20;;;;;;5085033;28;19920;-81
2022/03/17 09:33:25;;;;;;;;;;;10.90;1.00;;;;;;5083452;28;19920;-81
2022/03/17 09:35:52;;;;;;;;;;;11.00;1.00;;;;;;5078369;28;20380;-81
2022/03/17 09:38:17;;;;;;;;;;;10.80;1.00;;;;;;5085495;28;19995;-81
2022/03/17 09:40:43;;;;;;;;;;;10.80;1.00;;;;;;5087600;28;20381;-81
2022/03/17 09:43:28;;;;;;;;;;;10.60;1.00;;;;;;5090128;28;20327;-81
2022/03/17 09:45:59;;;;;;;;;;;10.60;1.00;;;;;;5083499;28;20360;-81
2022/03/17 09:48:25;;;;;;;;;;;10.60;1.00;;;;;;5090319;28;20012;-80
2022/03/17 09:50:57;;;;;;;;;;;10.50;1.00;;;;;;5078998;28;20629;-80
2022/03/17 09:53:23;;;;;;;;;;;10.40;1.00;;;;;;5086734;28;19916;-81
2022/03/17 09:55:50;;;;;;;;;;;10.40;10.30;;;;;;5084278;28;19916;-81
2022/03/17 09:58:16;;;;;;;;;;;10.40;37.80;;;;;;5086741;28;19913;-81
2022/03/17 10:00:48;;;;;;;;;;;10.40;14.80;;;;;;5086740;28;19919;-83
2022/03/17 10:03:21;;;;;;;;;;;10.50;16.00;;;;;;5085879;28;19913;-81
2022/03/17 10:05:48;;;;;;;;;;;10.50;1.00;;;;;;5077657;28;19916;-82
2022/03/17 10:08:14;;;;;;;;;;;10.50;1.00;;;;;;5083693;28;19924;-81
2022/03/17 10:10:41;;;;;;;;;;;10.40;4.50;;;;;;5074932;28;20310;-81
2022/03/17 10:13:14;;;;;;;;;;;10.50;1.00;;;;;;5083798;28;19928;-81
2022/03/17 10:15:40;;;;;;;;;;;10.60;1.00;;;;;;5073649;28;19919;-81
2022/03/17 10:18:19;;;;;;;;;;;10.70;1.00;;;;;;5089837;28;19912;-82
2022/03/17 10:20:45;;;;;;;;;;;10.80;1.00;;;;;;5081851;28;19912;-82
2022/03/17 10:23:11;;;;;;;;;;;11.00;1.00;;;;;;5082155;28;20550;-81
2022/03/17 10:25:37;;;;;;;;;;;11.30;1.00;;;;;;5078126;28;19965;-80
2022/03/17 10:28:03;;;;;;;;;;;11.50;1.00;;;;;;5074926;28;19916;-81
2022/03/17 10:30:34;;;;;;;;;;;11.60;1.00;;;;;;5084815;28;19916;-82
2022/03/17 10:33:01;;;;;;;;;;;11.70;1.00;;;;;;5076390;28;19919;-82
2022/03/17 10:35:31;;;;;;;;;;;12.00;1.00;;;;;;5084660;28;19919;-81
2022/03/17 10:37:57;;;;;;;;;;;12.40;1.00;;;;;;5078376;28;20320;-81
2022/03/17 10:40:28;;;;;;;;;;;12.70;1.00;;;;;;5090540;28;19919;-82
2022/03/17 10:42:53;;;;;;;;;;;12.90;1.00;;;;;;5082471;28;19927;-82
2022/03/17 10:45:19;;;;;;;;;;;13.00;1.00;;;;;;5087108;28;20011;-81
2022/03/17 10:47:44;;;;;;;;;;;12.90;1.00;;;;;;5080856;28;19930;-81
2022/03/17 10:50:14;;;;;;;;;;;12.70;1.00;;;;;;5083837;28;19983;-81
2022/03/17 10:52:45;;;;;;;;;;;12.60;1.00;;;;;;5080485;28;19912;-82
2022/03/17 10:55:11;;;;;;;;;;;12.40;1.00;;;;;;5085696;28;19919;-81
2022/03/17 10:57:37;;;;;;;;;;;12.40;1.00;;;;;;5085676;28;19912;-81
2022/03/17 11:00:03;;;;;;;;;;;12.40;1.00;;;;;;5078410;28;19976;-81
2022/03/17 11:02:32;;;;;;;;;;;12.70;1.00;;;;;;5088277;28;20041;-80
2022/03/17 11:05:00;;;;;;;;;;;13.10;1.00;;;;;;5090126;28;19916;-82
2022/03/17 11:07:26;;;;;;;;;;;13.50;1.00;;;;;;5080278;28;20388;-81
2022/03/17 11:09:51;;;;;;;;;;;13.60;99.90;;;;;;5082292;28;19963;-81
2022/03/17 11:12:17;;;;;;;;;;;13.70;99.90;;;;;;5078660;28;19921;-81
2022/03/17 11:14:44;;;;;;;;;;;13.50;99.90;;;;;;5086205;28;19939;-81
2022/03/17 11:17:11;;;;;;;;;;;13.20;99.90;;;;;;5067569;28;19917;-81
2022/03/17 11:19:36;;;;;;;;;;;13.10;99.90;;;;;;5085456;28;19943;-81
2022/03/17 11:22:05;;;;;;;;;;;13.00;99.90;;;;;;5074680;28;19916;-82
2022/03/17 11:24:30;;;;;;;;;;;13.20;99.90;;;;;;5087808;28;19939;-82
2022/03/17 11:27:06;;;;;;;;;;;13.50;99.90;;;;;;5075262;28;19912;-82
2022/03/17 11:29:37;;;;;;;;;;;13.80;99.90;;;;;;5086419;28;19912;-81
2022/03/17 11:32:05;;;;;;;;;;;14.00;99.90;;;;;;5076903;28;19912;-80
2022/03/17 11:34:37;;;;;;;;;;;14.40;99.90;;;;;;5073005;28;20376;-81
2022/03/17 11:37:14;;;;;;;;;;;14.70;99.90;;;;;;5085456;28;20287;-81
2022/03/17 11:39:50;;;;;;;;;;;15.40;99.90;;;;;;5075905;28;20368;-82
2022/03/17 11:42:54;;;;;;;;;;;15.90;99.90;;;;;;5081026;28;19916;-81
2022/03/17 11:45:19;;;;;;;;;;;16.10;99.90;;;;;;5069220;28;19924;-81
2022/03/17 11:47:46;;;;;;;;;;;15.50;99.90;;;;;;5086379;28;19912;-81
2022/03/17 11:50:37;;;;;;;;;;;15.50;99.90;;;;;;5080332;28;20593;-82
2022/03/17 11:53:07;;;;;;;;;;;15.80;99.90;;;;;;5078797;28;19946;-82
2022/03/17 11:55:42;;;;;;;;;;;16.40;99.90;;;;;;5083027;28;19959;-82
2022/03/17 11:58:24;;;;;;;;;;;16.90;99.90;;;;;;5086337;28;19912;-83
2022/03/17 12:01:00;;;;;;;;;;;17.50;99.90;;;;;;5076508;28;19911;-82
2022/03/17 12:03:37;;;;;;;;;;;18.30;99.90;;;;;;5069529;28;19916;-82
2022/03/17 12:06:14;;;;;;;;;;;18.50;99.90;;;;;;5074251;28;19959;-87
2022/03/17 12:08:41;;;;;;;;;;;18.50;99.90;;;;;;5079708;28;19912;-81
2022/03/17 12:11:08;;;;;;;;;;;18.30;99.90;;;;;;5081928;28;20399;-82
2022/03/17 12:13:35;;;;;;;;;;;18.50;99.90;;;;;;5079737;28;19921;-81
2022/03/17 12:16:01;;;;;;;;;;;18.70;99.90;;;;;;5087206;28;19912;-81
2022/03/17 12:18:28;;;;;;;;;;;18.50;99.90;;;;;;5081471;28;20012;-81
2022/03/17 12:20:54;;;;;;;;;;;18.90;99.90;;;;;;5076219;28;19916;-81
2022/03/17 12:23:38;;;;;;;;;;;19.20;99.90;;;;;;5075820;28;19920;-81
2022/03/17 12:26:04;;;;;;;;;;;19.40;99.90;;;;;;5076782;28;19913;-82
2022/03/17 12:28:30;;;;;;;;;;;19.00;99.90;;;;;;5086320;28;19912;-80
2022/03/17 12:30:56;;;;;;;;;;;18.80;99.90;;;;;;5089690;28;19938;-81
2022/03/17 12:33:22;;;;;;;;;;;18.60;99.90;;;;;;5084173;28;19952;-81
2022/03/17 12:36:02;;;;;;;;;;;18.50;99.90;;;;;;5075619;28;20009;-80
2022/03/17 12:38:28;;;;;;;;;;;18.20;99.90;;;;;;5078395;28;19923;-79
2022/03/17 12:40:53;;;;;;;;;;;17.90;99.90;;;;;;5079454;28;19912;-81
2022/03/17 12:43:20;;;;;;;;;;;17.90;99.90;;;;;;5071253;28;19967;-80
2022/03/17 12:45:47;;;;;;;;;;;17.40;99.90;;;;;;5084655;28;19912;-82
2022/03/17 12:48:16;;;;;;;;;;;17.10;99.90;;;;;;5087159;28;19936;-81
2022/03/17 12:50:41;;;;;;;;;;;16.70;99.90;;;;;;5082418;28;19918;-82
2022/03/17 12:53:07;;;;;;;;;;;16.30;99.90;;;;;;5087228;28;20447;-80
2022/03/17 12:55:32;;;;;;;;;;;16.00;99.90;;;;;;5092623;28;19922;-79
2022/03/17 12:57:58;;;;;;;;;;;15.90;99.90;;;;;;5089999;28;19959;-80
2022/03/17 13:00:24;;;;;;;;;;;15.40;99.90;;;;;;5075710;28;20195;-81
2022/03/17 13:02:54;;;;;;;;;;;15.10;99.90;;;;;;5086770;28;19935;-81
2022/03/17 13:08:05;;;;;;;;;;;14.70;99.90;;;;;;5088111;28;20169;-81
2022/03/17 13:16:00;;;;;;;;;;;14.30;99.90;;;;;;5073726;28;19920;-80
2022/03/17 13:18:38;;;;;;;;;;;14.30;99.90;;;;;;5076640;22;19929;-81
2022/03/17 13:21:04;;;;;;;;;;;14.40;99.90;;;;;;5036238;28;19913;-80
2022/03/17 13:23:36;;;;;;;;;;;14.20;99.90;;;;;;5031544;28;20091;-80
2022/03/17 13:26:01;;;;;;;;;;;14.00;99.90;;;;;;5032125;28;19917;-80
2022/03/17 13:28:27;;;;;;;;;;;14.20;99.90;;;;;;5027932;28;19917;-81
2022/03/17 13:30:53;;;;;;;;;;;14.50;99.90;;;;;;5033933;28;19952;-81
2022/03/17 13:33:29;;;;;;;;;;;14.60;99.90;;;;;;5029206;28;19936;-81
2022/03/17 13:35:54;;;;;;;;;;;14.70;99.90;;;;;;5028956;28;20032;-80
2022/03/17 13:38:20;;;;;;;;;;;14.40;99.90;;;;;;5031840;28;19948;-81
2022/03/17 13:40:46;;;;;;;;;;;14.40;99.90;;;;;;5031849;28;19913;-81
2022/03/17 13:43:12;;;;;;;;;;;14.40;99.90;;;;;;5030745;28;20572;-81
2022/03/17 13:45:39;;;;;;;;;;;14.60;99.90;;;;;;5030499;28;20029;-81
2022/03/17 13:48:07;;;;;;;;;;;14.70;99.90;;;;;;5031408;28;19913;-81
2022/03/17 13:50:34;;;;;;;;;;;14.80;99.90;;;;;;5030131;28;20015;-81
2022/03/17 13:53:04;;;;;;;;;;;14.70;99.90;;;;;;5034024;28;19913;-80
2022/03/17 13:55:31;;;;;;;;;;;14.80;99.90;;;;;;5034014;28;19939;-80
2022/03/17 13:58:07;;;;;;;;;;;14.80;99.90;;;;;;5035627;28;19914;-81
2022/03/17 14:00:33;;;;;;;;;;;14.90;99.90;;;;;;5036401;28;19909;-80
2022/03/17 14:03:13;;;;;;;;;;;14.80;99.90;;;;;;5033683;28;19936;-80
2022/03/17 14:05:57;;;;;;;;;;;14.70;99.90;;;;;;5037208;28;20023;-81
2022/03/17 14:08:23;;;;;;;;;;;14.70;99.90;;;;;;5035678;28;19980;-80
2022/03/17 14:10:49;;;;;;;;;;;14.70;99.90;;;;;;5034223;28;19968;-80
2022/03/17 14:13:14;;;;;;;;;;;14.50;99.90;;;;;;5033987;28;19913;-80
2022/03/17 14:15:40;;;;;;;;;;;14.50;99.90;;;;;;5035109;28;19965;-80
2022/03/17 14:18:06;;;;;;;;;;;14.40;99.90;;;;;;5035631;28;19936;-81
2022/03/17 14:20:32;;;;;;;;;;;14.30;99.90;;;;;;5032222;28;19917;-81
2022/03/17 14:25:42;;;;;;;;;;;14.20;99.90;;;;;;5034495;28;19935;-81
2022/03/17 14:28:07;;;;;;;;;;;14.20;99.90;;;;;;5034903;28;20289;-81
2022/03/17 14:30:33;;;;;;;;;;;14.30;99.90;;;;;;5032559;28;19913;-81
2022/03/17 14:32:58;;;;;;;;;;;14.40;99.90;;;;;;5035195;28;19936;-81
2022/03/17 14:35:24;;;;;;;;;;;14.40;99.90;;;;;;5039983;28;19910;-81
2022/03/17 14:37:49;;;;;;;;;;;14.50;99.90;;;;;;5035213;28;19956;-80
2022/03/17 14:40:15;;;;;;;;;;;14.50;99.90;;;;;;5037281;28;19913;-82
2022/03/17 14:42:40;;;;;;;;;;;14.60;99.90;;;;;;5034202;28;20050;-81
2022/03/17 14:45:06;;;;;;;;;;;14.60;99.90;;;;;;5036759;28;19924;-81
2022/03/17 14:47:33;;;;;;;;;;;14.50;99.90;;;;;;5032868;28;19916;-81
2022/03/17 14:50:00;;;;;;;;;;;14.50;99.90;;;;;;5036866;28;19917;-81
2022/03/17 14:52:25;;;;;;;;;;;14.50;99.90;;;;;;5034911;28;20365;-80